Terminal Aerodrome Forecast
Issued by NWS Mt. Holly, NJ

Home | Current Version | Previous Version | Text Only | Print | Product List | Glossary On
Versions: 1 2 3 4 5 6 7 8 9 10 11 12 13 14 15 16 17 18 19 20 21 22 23 24
381
FTUS41 KPHI 052322
TAFTTN
TAF
KTTN 052322Z 0600/0624 32006KT P6SM SKC
     FM060400 VRB03KT P6SM SCT250
     FM061600 23006KT P6SM BKN250=

USA.gov is the U.S. government's official web portal to all federal, state and local government web resources and services.